createdAt,value
2023-10-25T00:02:28.604Z,13.73
2023-10-25T00:05:34.582Z,14.77
2023-10-25T00:08:38.530Z,15.37
2023-10-25T00:11:42.183Z,14.37
2023-10-25T00:14:45.957Z,13.40
2023-10-25T00:17:51.292Z,14.33
2023-10-25T00:20:55.839Z,14.03
2023-10-25T00:23:59.539Z,12.80
2023-10-25T00:27:03.229Z,11.73
2023-10-25T00:30:08.588Z,13.13
2023-10-25T00:33:13.946Z,13.97
2023-10-25T00:36:17.697Z,14.90
2023-10-25T00:39:21.405Z,14.33
2023-10-25T00:42:25.153Z,13.43
2023-10-25T00:45:31.466Z,12.70
2023-10-25T00:48:38.741Z,13.30
2023-10-25T00:51:42.780Z,12.30
2023-10-25T00:54:46.833Z,13.70
2023-10-25T00:57:50.698Z,13.97
2023-10-25T01:00:57.676Z,13.53
2023-10-25T01:04:02.890Z,15.47
2023-10-25T01:07:07.428Z,13.47
2023-10-25T01:10:11.998Z,15.70
2023-10-25T01:13:15.865Z,14.23
2023-10-25T01:16:20.988Z,14.13
2023-10-25T01:19:26.197Z,15.07
2023-10-25T01:22:31.395Z,13.90
2023-10-25T01:25:35.296Z,12.10
2023-10-25T01:28:38.980Z,11.87
2023-10-25T01:31:43.038Z,11.77
2023-10-25T01:34:46.834Z,13.30
2023-10-25T01:37:51.914Z,13.23
2023-10-25T01:40:55.677Z,12.40
2023-10-25T01:43:59.450Z,13.57
2023-10-25T01:47:03.272Z,13.97
2023-10-25T01:50:09.220Z,12.23
2023-10-25T01:53:14.308Z,13.90
2023-10-25T01:56:17.970Z,13.20
2023-10-25T01:59:22.009Z,12.90
2023-10-25T02:02:25.904Z,11.93
2023-10-25T02:05:30.361Z,12.40
2023-10-25T02:08:35.386Z,12.47
2023-10-25T02:11:39.171Z,12.93
2023-10-25T02:14:42.871Z,11.77
2023-10-25T02:17:46.577Z,11.83
2023-10-25T02:20:50.306Z,12.10
2023-10-25T02:23:55.496Z,13.10
2023-10-25T02:26:59.238Z,13.03
2023-10-25T02:30:03.789Z,12.27
2023-10-25T02:33:07.511Z,11.77
2023-10-25T02:36:11.224Z,11.33
2023-10-25T02:39:16.332Z,13.13
2023-10-25T02:42:20.026Z,12.47
2023-10-25T02:45:23.745Z,11.23
2023-10-25T02:48:27.439Z,11.40
2023-10-25T02:51:31.208Z,12.20
2023-10-25T02:54:36.217Z,11.60
2023-10-25T02:57:39.918Z,11.80
2023-10-25T03:00:43.652Z,11.53
2023-10-25T03:03:47.399Z,12.07
2023-10-25T03:06:51.236Z,11.87
2023-10-25T03:09:56.417Z,11.37
2023-10-25T03:13:01.189Z,10.87
2023-10-25T03:16:05.801Z,11.60
2023-10-25T03:19:10.349Z,11.63
2023-10-25T03:22:14.073Z,10.47
2023-10-25T03:25:19.464Z,11.67
2023-10-25T03:28:23.317Z,11.37
2023-10-25T03:31:27.107Z,11.20
2023-10-25T03:34:30.920Z,10.87
2023-10-25T03:37:36.046Z,10.87
2023-10-25T03:40:41.089Z,11.00
2023-10-25T03:43:45.084Z,10.93
2023-10-25T03:46:48.968Z,11.57
2023-10-25T03:49:54.838Z,11.00
2023-10-25T03:52:58.560Z,10.33
2023-10-25T03:56:04.349Z,12.00
2023-10-25T03:59:08.646Z,10.00
2023-10-25T04:02:13.264Z,9.90
2023-10-25T04:05:17.131Z,12.10
2023-10-25T04:08:20.994Z,10.97
2023-10-25T04:11:26.086Z,11.60
2023-10-25T04:14:30.054Z,11.23
2023-10-25T04:17:33.660Z,10.60
2023-10-25T04:20:37.408Z,12.77
2023-10-25T04:23:42.220Z,10.57
2023-10-25T04:26:47.534Z,12.17
2023-10-25T04:29:51.148Z,11.70
2023-10-25T04:32:54.920Z,11.70
2023-10-25T04:35:58.630Z,12.00
2023-10-25T04:39:02.589Z,11.67
2023-10-25T04:42:07.693Z,12.23
2023-10-25T04:45:19.688Z,12.33
2023-10-25T04:48:23.480Z,12.83
2023-10-25T04:51:27.248Z,11.60
2023-10-25T04:54:30.933Z,12.53
2023-10-25T04:57:37.458Z,11.17
2023-10-25T05:00:41.522Z,12.67
2023-10-25T05:03:45.941Z,11.23
2023-10-25T05:06:50.871Z,14.03
2023-10-25T05:09:55.600Z,13.87
2023-10-25T05:13:01.750Z,12.13
2023-10-25T05:16:07.328Z,11.93
2023-10-25T05:19:12.625Z,31.00
2023-10-25T05:22:18.642Z,16.77
2023-10-25T05:25:24.103Z,12.80
2023-10-25T05:28:31.392Z,10.37
2023-10-25T05:31:40.626Z,12.20
2023-10-25T05:34:45.288Z,10.43
2023-10-25T05:37:49.749Z,11.60
2023-10-25T05:40:56.025Z,10.20
2023-10-25T05:44:09.412Z,11.00
2023-10-25T05:47:13.142Z,10.10
2023-10-25T05:50:18.058Z,10.23
2023-10-25T05:53:22.732Z,10.83
2023-10-25T05:56:28.179Z,10.83
2023-10-25T05:59:34.418Z,10.73
2023-10-25T06:02:39.959Z,10.47
2023-10-25T06:05:45.185Z,9.83
2023-10-25T06:08:49.657Z,10.40
2023-10-25T06:11:55.557Z,9.60
2023-10-25T06:15:00.564Z,10.87
2023-10-25T06:18:08.846Z,9.67
2023-10-25T06:21:12.480Z,9.37
2023-10-25T06:24:16.410Z,9.10
2023-10-25T06:27:20.102Z,9.60
2023-10-25T06:30:25.313Z,9.03
2023-10-25T06:33:28.950Z,10.17
2023-10-25T06:36:35.893Z,8.40
2023-10-25T06:39:40.742Z,9.57
2023-10-25T06:42:45.337Z,9.43
2023-10-25T06:45:51.436Z,10.30
2023-10-25T06:48:57.644Z,8.80
2023-10-25T06:52:02.568Z,9.60
2023-10-25T06:55:07.949Z,9.47
2023-10-25T06:58:12.575Z,8.93
2023-10-25T07:01:21.941Z,9.47
2023-10-25T07:04:29.509Z,9.30
2023-10-25T07:07:36.118Z,8.27
2023-10-25T07:10:41.131Z,9.50
2023-10-25T07:13:44.817Z,9.60
2023-10-25T07:16:50.049Z,8.50
2023-10-25T07:19:53.812Z,8.77
2023-10-25T07:22:57.479Z,8.30
2023-10-25T07:26:01.177Z,7.53
2023-10-25T07:29:05.090Z,8.83
2023-10-25T07:32:10.395Z,8.47
2023-10-25T07:35:14.256Z,8.63
2023-10-25T07:38:18.057Z,6.93
2023-10-25T07:41:21.678Z,7.20
2023-10-25T07:44:25.355Z,6.80
2023-10-25T07:47:31.163Z,7.43
2023-10-25T07:50:35.946Z,6.23
2023-10-25T07:53:39.637Z,10.20
2023-10-25T07:59:50.116Z,7.20
2023-10-25T08:02:55.268Z,5.63
2023-10-25T08:05:59.142Z,5.87
2023-10-25T08:09:02.922Z,6.10
2023-10-25T08:12:07.238Z,5.93
2023-10-25T08:15:11.505Z,5.77
2023-10-25T08:18:16.582Z,6.17
2023-10-25T08:21:20.407Z,4.93
2023-10-25T08:24:25.001Z,5.20
2023-10-25T08:27:28.819Z,5.10
2023-10-25T08:30:34.464Z,5.70
2023-10-25T08:33:39.628Z,5.70
2023-10-25T08:36:43.848Z,4.30
2023-10-25T08:39:51.607Z,5.03
2023-10-25T08:42:59.847Z,4.77
2023-10-25T08:46:05.494Z,4.70
2023-10-25T08:49:10.866Z,4.73
2023-10-25T08:52:15.873Z,4.40
2023-10-25T08:55:21.383Z,3.87
2023-10-25T08:58:28.247Z,4.20
2023-10-25T09:01:34.323Z,4.23
2023-10-25T09:04:39.563Z,4.70
2023-10-25T09:07:43.418Z,3.60
2023-10-25T09:10:59.309Z,4.30
2023-10-25T09:14:04.499Z,3.83
2023-10-25T09:17:10.561Z,3.80
2023-10-25T09:20:15.810Z,4.27
2023-10-25T09:23:19.919Z,4.20
2023-10-25T09:26:23.989Z,4.53
2023-10-25T09:29:33.063Z,4.50
2023-10-25T09:32:38.947Z,4.23
2023-10-25T09:35:44.925Z,3.30
2023-10-25T09:38:48.978Z,3.70
2023-10-25T09:41:54.735Z,3.97
2023-10-25T09:45:05.427Z,4.43
2023-10-25T09:48:14.617Z,3.07
2023-10-25T09:51:32.108Z,3.37
2023-10-25T09:54:37.656Z,3.60
2023-10-25T09:57:43.984Z,3.87
2023-10-25T10:00:47.873Z,3.63
2023-10-25T10:04:09.989Z,3.73
2023-10-25T10:07:38.669Z,3.63
2023-10-25T10:10:51.947Z,3.40
2023-10-25T10:14:33.093Z,3.30
2023-10-25T10:17:43.813Z,3.60
2023-10-25T10:21:01.907Z,3.30
2023-10-25T10:24:28.575Z,3.67
2023-10-25T10:28:03.958Z,4.43
2023-10-25T10:31:10.614Z,3.60
2023-10-25T10:34:14.348Z,3.47
2023-10-25T10:37:22.288Z,3.53
2023-10-25T10:40:27.748Z,3.60
2023-10-25T10:43:33.283Z,3.60
2023-10-25T10:46:47.058Z,3.37
2023-10-25T10:50:02.352Z,3.00
2023-10-25T10:53:05.996Z,3.43
2023-10-25T10:56:11.411Z,3.90
2023-10-25T10:59:15.390Z,3.47
2023-10-25T11:02:20.307Z,3.23
2023-10-25T11:05:24.693Z,3.00
2023-10-25T11:08:28.500Z,2.70
2023-10-25T11:11:33.778Z,2.77
2023-10-25T11:14:43.186Z,2.47
2023-10-25T11:17:47.217Z,2.73
2023-10-25T11:20:51.110Z,2.23
2023-10-25T11:23:54.888Z,3.13
2023-10-25T11:26:59.936Z,2.03
2023-10-25T11:30:04.095Z,2.27
2023-10-25T11:33:08.768Z,2.20
2023-10-25T11:36:13.916Z,2.50
2023-10-25T11:39:17.822Z,2.53
2023-10-25T11:42:22.973Z,2.57
2023-10-25T11:45:26.823Z,2.73
2023-10-25T11:48:30.630Z,3.00
2023-10-25T11:51:35.702Z,3.10
2023-10-25T11:54:39.867Z,3.10
2023-10-25T11:57:44.876Z,3.40
2023-10-25T12:00:48.714Z,2.83
2023-10-25T12:03:52.522Z,3.30
2023-10-25T12:06:57.037Z,2.97
2023-10-25T12:10:00.824Z,2.87
2023-10-25T12:13:06.466Z,3.83
2023-10-25T12:16:11.262Z,3.20
2023-10-25T12:19:15.040Z,3.73
2023-10-25T12:22:20.382Z,3.20
2023-10-25T12:25:24.201Z,3.27
2023-10-25T12:28:29.738Z,3.00
2023-10-25T12:31:33.547Z,3.40
2023-10-25T12:34:37.628Z,3.00
2023-10-25T12:37:41.993Z,3.50
2023-10-25T12:40:45.701Z,3.67
2023-10-25T12:43:50.731Z,3.60
2023-10-25T12:46:54.500Z,4.23
2023-10-25T12:49:58.209Z,3.73
2023-10-25T12:53:02.474Z,3.90
2023-10-25T12:56:06.684Z,3.60
2023-10-25T12:59:11.744Z,3.80
2023-10-25T13:02:15.464Z,3.80
2023-10-25T13:05:19.206Z,4.63
2023-10-25T13:08:23.456Z,4.30
2023-10-25T13:11:27.272Z,3.73
2023-10-25T13:14:32.578Z,4.23
2023-10-25T13:17:36.313Z,3.90
2023-10-25T13:20:40.121Z,3.87
2023-10-25T13:23:45.115Z,3.70
2023-10-25T13:26:49.296Z,4.00
2023-10-25T13:29:57.033Z,3.83
2023-10-25T13:33:00.935Z,3.67
2023-10-25T13:36:05.121Z,3.80
2023-10-25T13:39:08.968Z,3.87
2023-10-25T13:42:12.705Z,3.87
2023-10-25T13:45:17.854Z,3.87
2023-10-25T13:48:21.685Z,3.37
2023-10-25T13:51:25.536Z,3.87
2023-10-25T13:54:31.048Z,3.93
2023-10-25T13:57:35.113Z,4.77
2023-10-25T14:00:40.507Z,3.60
2023-10-25T14:03:44.276Z,4.47
2023-10-25T14:06:47.997Z,3.90
2023-10-25T14:09:51.592Z,3.97
2023-10-25T14:12:55.771Z,4.07
2023-10-25T14:16:00.947Z,4.00
2023-10-25T14:19:06.622Z,3.70
2023-10-25T14:22:10.355Z,3.10
2023-10-25T14:25:14.077Z,3.03
2023-10-25T14:28:17.866Z,2.73
2023-10-25T14:31:23.096Z,2.90
2023-10-25T14:34:26.856Z,3.60
2023-10-25T14:37:31.137Z,3.10
2023-10-25T14:40:42.322Z,4.10
2023-10-25T14:43:46.399Z,4.40
2023-10-25T14:46:51.550Z,9.00
2023-10-25T14:49:55.281Z,7.57
2023-10-25T14:52:58.969Z,9.00
2023-10-25T14:59:07.815Z,4.23
2023-10-25T15:02:13.060Z,9.63
2023-10-25T15:05:18.272Z,4.90
2023-10-25T15:08:22.006Z,5.80
2023-10-25T15:11:26.074Z,5.57
2023-10-25T15:14:36.305Z,3.67
2023-10-25T15:17:47.212Z,2.97
2023-10-25T15:20:51.161Z,2.57
2023-10-25T15:23:54.878Z,2.43
2023-10-25T15:26:59.367Z,2.57
2023-10-25T15:30:04.316Z,2.87
2023-10-25T15:33:09.717Z,2.63
2023-10-25T15:36:13.434Z,2.20
2023-10-25T15:39:17.224Z,2.83
2023-10-25T15:42:21.081Z,2.90
2023-10-25T15:45:30.309Z,3.17
2023-10-25T15:48:43.662Z,4.80
2023-10-25T15:51:47.442Z,6.73
2023-10-25T15:54:51.199Z,7.10
2023-10-25T15:57:54.869Z,3.80
2023-10-25T16:04:09.317Z,3.80
2023-10-25T16:07:13.246Z,3.60
2023-10-25T16:10:17.057Z,6.23
2023-10-25T16:13:20.717Z,15.17
2023-10-25T16:16:24.512Z,7.50
2023-10-25T16:19:31.915Z,10.90
2023-10-25T16:22:36.436Z,6.87
2023-10-25T16:25:40.886Z,16.00
2023-10-25T16:28:47.315Z,15.03
2023-10-25T16:31:51.497Z,9.93
2023-10-25T16:34:56.476Z,5.13
2023-10-25T16:38:00.170Z,4.63
2023-10-25T16:41:04.477Z,3.67
2023-10-25T16:44:11.810Z,4.13
2023-10-25T16:47:15.590Z,4.33
2023-10-25T16:50:21.213Z,4.13
2023-10-25T16:53:25.063Z,5.33
2023-10-25T16:56:28.722Z,3.93
2023-10-25T16:59:35.177Z,3.67
2023-10-25T17:02:38.990Z,3.60
2023-10-25T17:05:44.686Z,4.27
2023-10-25T17:08:48.646Z,4.53
2023-10-25T17:11:52.345Z,3.37
2023-10-25T17:14:56.022Z,2.37
2023-10-25T17:17:59.881Z,3.70
2023-10-25T17:21:11.140Z,3.20
2023-10-25T17:24:15.647Z,2.80
2023-10-25T17:27:19.311Z,3.17
2023-10-25T17:30:22.948Z,3.10
2023-10-25T17:33:27.185Z,3.50
2023-10-25T17:36:32.292Z,4.77
2023-10-25T17:39:36.007Z,3.20
2023-10-25T17:42:39.652Z,3.60
2023-10-25T17:46:00.364Z,3.03
2023-10-25T17:49:04.655Z,2.83
2023-10-25T17:52:10.156Z,3.20
2023-10-25T17:55:14.645Z,2.90
2023-10-25T17:58:18.463Z,2.77
2023-10-25T18:01:22.154Z,3.87
2023-10-25T18:04:25.894Z,3.20
2023-10-25T18:07:30.932Z,3.70
2023-10-25T18:10:34.948Z,3.73
2023-10-25T18:13:50.415Z,3.93
2023-10-25T18:17:01.323Z,3.47
2023-10-25T18:20:06.434Z,3.33
2023-10-25T18:23:11.725Z,3.43
2023-10-25T18:26:15.370Z,3.90
2023-10-25T18:29:19.128Z,2.93
2023-10-25T18:32:22.924Z,3.53
2023-10-25T18:35:31.761Z,3.30
2023-10-25T18:38:36.861Z,3.43
2023-10-25T18:41:41.428Z,3.23
2023-10-25T18:44:45.466Z,3.40
2023-10-25T18:47:49.313Z,3.80
2023-10-25T18:50:53.083Z,3.80
2023-10-25T18:53:58.137Z,3.13
2023-10-25T18:57:01.788Z,3.30
2023-10-25T19:00:08.044Z,3.37
2023-10-25T19:03:14.064Z,3.53
2023-10-25T19:06:28.198Z,3.30
2023-10-25T19:09:37.466Z,3.53
2023-10-25T19:12:53.895Z,3.57
2023-10-25T19:15:57.555Z,3.37
2023-10-25T19:19:01.648Z,3.20
2023-10-25T19:22:05.645Z,4.03
2023-10-25T19:25:11.258Z,4.30
2023-10-25T19:28:16.684Z,3.60
2023-10-25T19:31:20.808Z,3.30
2023-10-25T19:34:25.167Z,4.03
2023-10-25T19:37:29.218Z,4.23
2023-10-25T19:40:34.232Z,4.13
2023-10-25T19:43:39.410Z,4.07
2023-10-25T19:46:43.380Z,4.30
2023-10-25T19:49:47.130Z,4.20
2023-10-25T19:52:50.721Z,4.17
2023-10-25T19:55:56.215Z,4.27
2023-10-25T19:58:59.860Z,4.47
2023-10-25T20:02:03.752Z,4.20
2023-10-25T20:05:08.719Z,4.47
2023-10-25T20:08:12.673Z,4.23
2023-10-25T20:11:19.524Z,4.43
2023-10-25T20:14:23.608Z,4.43
2023-10-25T20:17:27.741Z,4.77
2023-10-25T20:20:31.391Z,4.93
2023-10-25T20:23:36.590Z,4.33
2023-10-25T20:26:41.776Z,6.90
2023-10-25T20:29:48.188Z,7.90
2023-10-25T20:32:51.978Z,4.43
2023-10-25T20:36:00.515Z,4.70
2023-10-25T20:39:04.920Z,5.27
2023-10-25T20:42:10.158Z,4.80
2023-10-25T20:45:14.206Z,4.70
2023-10-25T20:48:18.051Z,5.60
2023-10-25T20:51:24.300Z,5.90
2023-10-25T20:54:28.072Z,6.30
2023-10-25T20:57:34.091Z,5.07
2023-10-25T21:00:41.530Z,4.70
2023-10-25T21:03:46.115Z,7.77
2023-10-25T21:06:49.957Z,5.37
2023-10-25T21:09:53.716Z,6.73
2023-10-25T21:12:58.841Z,6.73
2023-10-25T21:16:05.078Z,7.67
2023-10-25T21:19:08.914Z,12.00
2023-10-25T21:22:12.659Z,8.90
2023-10-25T21:25:16.807Z,6.90
2023-10-25T21:28:22.521Z,6.63
2023-10-25T21:31:28.385Z,7.23
2023-10-25T21:34:32.567Z,5.70
2023-10-25T21:37:36.563Z,6.87
2023-10-25T21:40:41.562Z,7.00
2023-10-25T21:43:46.748Z,7.53
2023-10-25T21:46:50.433Z,6.70
2023-10-25T21:49:54.555Z,7.13
2023-10-25T21:52:58.213Z,7.83
2023-10-25T21:56:23.534Z,8.07
2023-10-25T21:59:50.131Z,9.40
2023-10-25T22:02:51.415Z,8.87
2023-10-25T22:05:55.164Z,8.30
2023-10-25T22:08:58.821Z,9.67
2023-10-25T22:12:02.509Z,7.67
2023-10-25T22:15:08.893Z,8.17
2023-10-25T22:18:12.731Z,7.97
2023-10-25T22:21:16.417Z,9.37
2023-10-25T22:24:20.120Z,9.10
2023-10-25T22:27:24.025Z,8.10
2023-10-25T22:30:29.231Z,9.03
2023-10-25T22:33:33.629Z,8.53
2023-10-25T22:36:37.369Z,8.10
2023-10-25T22:39:41.040Z,8.93
2023-10-25T22:42:44.656Z,8.43
2023-10-25T22:45:49.833Z,9.63
2023-10-25T22:48:53.840Z,9.63
2023-10-25T22:51:57.558Z,9.53
2023-10-25T22:55:01.424Z,9.77
2023-10-25T22:58:05.038Z,9.27
2023-10-25T23:01:10.207Z,9.53
2023-10-25T23:04:14.007Z,10.83
2023-10-25T23:07:17.806Z,10.50
2023-10-25T23:10:21.663Z,10.90
2023-10-25T23:13:25.468Z,11.43
2023-10-25T23:16:30.546Z,11.93
2023-10-25T23:19:34.301Z,11.63
2023-10-25T23:22:37.955Z,12.73
2023-10-25T23:25:41.641Z,12.80
2023-10-25T23:28:45.288Z,13.60
2023-10-25T23:31:50.438Z,14.07
2023-10-25T23:34:54.098Z,15.13
2023-10-25T23:37:57.719Z,13.67
2023-10-25T23:41:02.102Z,15.83
2023-10-25T23:44:06.251Z,15.00
2023-10-25T23:47:11.255Z,15.87
2023-10-25T23:50:14.862Z,15.57
2023-10-25T23:53:18.904Z,16.57
2023-10-25T23:56:36.270Z,17.30
2023-10-25T23:59:41.833Z,16.57
